Time;durP1;ratioP1;P1;durP2;ratioP2;P2;SDS_P1;SDS_P2;PMS_P1;PMS_P2;Temp;Humidity;BMP_temperature;BMP_pressure;BME280_temperature;BME280_humidity;BME280_pressure;Samples;Min_cycle;Max_cycle;Signal;HPM_P1;HPM_P2
2022/09/08 00:01:12;;;;;;;9.88;4.88;;;;;;;19.07;100.00;99175.03;12215302;19;20487;-81
2022/09/08 00:05:17;;;;;;;8.35;4.47;;;;;;;18.85;100.00;99226.13;12191748;19;20002;-81
2022/09/08 00:09:19;;;;;;;7.38;5.13;;;;;;;18.73;100.00;99245.44;12216226;19;20022;-82
2022/09/08 00:13:23;;;;;;;9.20;5.10;;;;;;;18.66;100.00;99225.50;12219960;19;20037;-81
2022/09/08 00:17:25;;;;;;;9.60;5.63;;;;;;;18.64;100.00;99223.00;12194990;19;20006;-81
2022/09/08 00:21:28;;;;;;;10.03;5.00;;;;;;;18.61;100.00;99211.69;12218964;19;20475;-81
2022/09/08 00:25:30;;;;;;;7.35;4.40;;;;;;;18.58;100.00;99210.34;12213363;19;20380;-81
2022/09/08 00:29:31;;;;;;;6.10;4.80;;;;;;;18.56;100.00;99200.63;12190271;19;20007;-81
2022/09/08 00:33:33;;;;;;;7.63;4.20;;;;;;;18.49;100.00;99191.91;12218725;19;20011;-82
2022/09/08 00:37:35;;;;;;;6.73;4.30;;;;;;;18.45;100.00;99183.34;12212469;19;20015;-81
2022/09/08 00:41:37;;;;;;;7.07;4.73;;;;;;;18.42;100.00;99173.63;12192369;19;20026;-81
2022/09/08 00:45:47;;;;;;;10.32;4.47;;;;;;;18.39;100.00;99163.13;12211312;19;20011;-82
2022/09/08 00:50:12;;;;;;;8.75;4.68;;;;;;;18.35;100.00;99162.13;12224378;19;20013;-81
2022/09/08 00:54:16;;;;;;;6.93;4.25;;;;;;;18.29;100.00;99159.75;12234761;19;20009;-81
2022/09/08 00:58:18;;;;;;;6.72;3.60;;;;;;;18.29;100.00;99159.75;12244136;19;20050;-82
2022/09/08 01:02:25;;;;;;;6.30;4.30;;;;;;;18.25;100.00;99156.78;12205457;19;20383;-82
2022/09/08 01:15:44;;;;;;;6.43;3.13;;;;;;;18.08;100.00;99146.31;12225369;19;20026;-82
2022/09/08 01:19:46;;;;;;;7.28;3.90;;;;;;;18.08;100.00;99151.06;12224069;19;20015;-82
2022/09/08 01:24:24;;;;;;;5.40;3.60;;;;;;;18.10;100.00;99157.97;12195995;19;20002;-82
2022/09/08 01:28:32;;;;;;;6.88;3.40;;;;;;;18.09;100.00;99153.53;12217515;19;20011;-81
2022/09/08 01:32:38;;;;;;;4.85;3.05;;;;;;;18.09;100.00;99152.72;12199146;19;20017;-81
2022/09/08 01:36:39;;;;;;;8.05;3.08;;;;;;;18.07;100.00;99153.03;12219435;19;20061;-81
2022/09/08 01:40:41;;;;;;;9.35;3.40;;;;;;;18.07;100.00;99152.22;12223860;19;20021;-82
2022/09/08 01:44:45;;;;;;;6.35;3.20;;;;;;;18.07;100.00;99155.00;12195131;19;20018;-82
2022/09/08 01:48:47;;;;;;;5.22;3.05;;;;;;;18.07;100.00;99155.81;12218507;19;20010;-82
2022/09/08 01:52:49;;;;;;;5.88;3.25;;;;;;;18.08;100.00;99160.25;12221776;19;20006;-82
2022/09/08 01:56:50;;;;;;;5.93;3.03;;;;;;;18.08;100.00;99149.09;12196878;19;20002;-82
2022/09/08 02:00:52;;;;;;;5.95;3.38;;;;;;;18.09;100.00;99147.16;12224815;19;20003;-81
2022/09/08 02:04:53;;;;;;;6.90;3.67;;;;;;;18.09;100.00;99136.81;12205169;19;20006;-82
2022/09/08 02:08:55;;;;;;;5.15;2.88;;;;;;;18.07;100.00;99127.13;12230461;19;20731;-81
2022/09/08 02:12:57;;;;;;;6.78;2.97;;;;;;;18.04;100.00;99113.81;12233722;19;20014;-82
2022/09/08 02:16:59;;;;;;;8.90;3.47;;;;;;;17.99;100.00;99107.25;12211524;19;20010;-82
2022/09/08 02:21:06;;;;;;;6.97;3.93;;;;;;;17.98;100.00;99110.31;12232360;19;20110;-82
2022/09/08 02:25:08;;;;;;;6.97;3.80;;;;;;;17.95;100.00;99100.63;12223707;19;20018;-82
2022/09/08 02:29:10;;;;;;;5.10;3.58;;;;;;;17.89;100.00;99099.09;12204378;19;20479;-82
2022/09/08 02:33:13;;;;;;;7.57;3.87;;;;;;;17.88;100.00;99103.03;12227620;19;20013;-82
2022/09/08 02:37:14;;;;;;;5.93;3.65;;;;;;;17.82;100.00;99092.31;12227553;19;20003;-81
2022/09/08 02:41:16;;;;;;;6.68;3.38;;;;;;;17.77;100.00;99096.88;12204440;19;20017;-81
2022/09/08 02:45:18;;;;;;;8.98;3.53;;;;;;;17.73;100.00;99081.91;12219340;19;20011;-82
2022/09/08 02:49:20;;;;;;;5.10;3.60;;;;;;;17.72;100.00;99082.19;12225960;19;20011;-81
2022/09/08 02:53:22;;;;;;;8.63;3.72;;;;;;;17.69;100.00;99078.09;12203938;19;20409;-81
2022/09/08 02:57:24;;;;;;;7.68;3.92;;;;;;;17.63;100.00;99084.91;12215655;19;20014;-81
2022/09/08 03:01:25;;;;;;;8.00;3.65;;;;;;;17.65;100.00;99088.22;12221358;19;20010;-81
2022/09/08 03:05:27;;;;;;;7.18;3.58;;;;;;;17.64;100.00;99089.38;12205720;19;20022;-81
2022/09/08 03:09:28;;;;;;;12.70;4.10;;;;;;;17.61;100.00;99097.50;12225055;19;20006;-82
2022/09/08 03:13:30;;;;;;;5.30;3.88;;;;;;;17.60;100.00;99088.31;12222500;19;20010;-81
2022/09/08 03:17:32;;;;;;;5.97;3.78;;;;;;;17.57;100.00;99091.75;12199284;19;20014;-82
2022/09/08 03:21:33;;;;;;;8.23;3.67;;;;;;;17.60;100.00;99093.91;12220689;19;20094;-81
2022/09/08 03:25:36;;;;;;;7.40;3.70;;;;;;;17.62;100.00;99110.31;12220883;19;20003;-82
2022/09/08 03:29:38;;;;;;;6.82;4.03;;;;;;;17.66;100.00;99109.34;12199694;19;20007;-82
2022/09/08 03:33:42;;;;;;;5.68;4.10;;;;;;;17.65;100.00;99121.66;12218857;19;20045;-82
2022/09/08 03:37:45;;;;;;;11.82;4.47;;;;;;;17.57;100.00;99077.81;12215341;19;20313;-85
2022/09/08 03:41:47;;;;;;;9.32;4.53;;;;;;;17.51;100.00;99065.16;12188906;19;20007;-86
2022/09/08 03:45:49;;;;;;;9.47;4.43;;;;;;;17.45;100.00;99061.66;12208906;19;20002;-88
2022/09/08 03:49:51;;;;;;;9.85;4.65;;;;;;;17.43;100.00;99057.53;12206396;19;20263;-87
2022/09/08 03:54:46;;;;;;;9.63;5.23;;;;;;;17.37;100.00;99069.91;12186867;19;20459;-86
2022/09/08 03:58:16;;;;;;;;;;;;;;;17.30;100.00;99081.50;12212514;19;20018;-85
2022/09/08 04:02:18;;;;;;;9.50;5.25;;;;;;;17.33;100.00;99080.03;12195078;19;19930;-85
2022/09/08 04:06:20;;;;;;;11.43;5.55;;;;;;;17.38;100.00;99089.13;12214302;19;20019;-85
2022/09/08 04:10:22;;;;;;;10.27;5.78;;;;;;;17.43;100.00;99088.16;12214591;19;20031;-84
2022/09/08 04:14:25;;;;;;;9.43;5.72;;;;;;;17.41;100.00;99069.00;12187024;19;20006;-87
2022/09/08 04:18:26;;;;;;;17.45;6.07;;;;;;;17.43;100.00;99068.66;12204854;19;20074;-88
2022/09/08 04:22:28;;;;;;;11.60;6.40;;;;;;;17.46;100.00;99068.03;12206624;19;20066;-86
2022/09/08 04:26:30;;;;;;;11.07;6.07;;;;;;;17.47;100.00;99072.50;12181299;19;20011;-88
2022/09/08 04:30:31;;;;;;;9.88;5.22;;;;;;;17.45;100.00;99060.84;12205861;19;20010;-89
2022/09/08 04:34:40;;;;;;;10.57;5.38;;;;;;;17.44;100.00;99075.91;12215065;19;20010;-88
2022/09/08 04:38:42;;;;;;;16.52;6.15;;;;;;;17.44;100.00;99064.75;12204202;19;20030;-90
2022/09/08 04:42:49;;;;;;;8.90;5.20;;;;;;;17.41;100.00;99054.25;12219415;19;20014;-90
2022/09/08 04:46:52;;;;;;;10.95;6.65;;;;;;;17.34;100.00;99054.69;12214253;19;20015;-89
2022/09/08 04:50:55;;;;;;;13.48;6.78;;;;;;;17.31;100.00;99060.84;12216169;19;20349;-89
2022/09/08 04:55:06;;;;;;;13.18;7.07;;;;;;;17.29;100.00;99066.75;12216530;19;20011;-90
2022/09/08 04:59:08;;;;;;;18.48;9.68;;;;;;;17.28;100.00;99067.91;12193796;19;20090;-91
2022/09/08 05:03:10;;;;;;;16.27;7.55;;;;;;;17.21;100.00;99080.59;12216519;19;20487;-83
2022/09/08 05:07:12;;;;;;;17.27;8.65;;;;;;;17.20;100.00;99081.72;12215902;19;20015;-82
2022/09/08 05:11:15;;;;;;;14.73;7.22;;;;;;;17.16;100.00;99092.63;12196742;19;20456;-84
2022/09/08 05:15:19;;;;;;;16.08;8.32;;;;;;;17.11;100.00;99101.13;12217977;19;20581;-85
2022/09/08 05:19:21;;;;;;;14.93;8.20;;;;;;;17.10;100.00;99091.09;12225188;19;20022;-87
2022/09/08 05:23:23;;;;;;;18.20;9.43;;;;;;;17.13;100.00;99084.09;12198866;19;20011;-86
2022/09/08 05:27:24;;;;;;;17.38;9.05;;;;;;;17.19;100.00;99080.06;12219768;19;20024;-86
2022/09/08 05:31:28;;;;;;;20.67;9.48;;;;;;;17.18;100.00;99059.75;12234243;19;20049;-87
2022/09/08 05:35:34;;;;;;;23.00;10.20;;;;;;;17.15;100.00;99048.44;12194788;19;20010;-87
2022/09/08 05:39:36;;;;;;;20.52;9.07;;;;;;;17.18;100.00;99048.63;12216006;19;20074;-87
2022/09/08 05:43:38;;;;;;;14.75;8.13;;;;;;;17.18;100.00;99058.94;12215274;19;20094;-86
2022/09/08 05:47:40;;;;;;;19.15;7.80;;;;;;;17.18;100.00;99073.69;12197499;19;20022;-85
2022/09/08 05:51:42;;;;;;;15.95;8.35;;;;;;;17.11;100.00;99087.19;12220965;19;20353;-86
2022/09/08 05:55:58;;;;;;;15.63;7.97;;;;;;;17.15;100.00;99087.41;12217315;19;20038;-85
2022/09/08 06:00:00;;;;;;;17.23;8.98;;;;;;;17.13;100.00;99115.53;12196405;19;20086;-85
2022/09/08 06:04:10;;;;;;;16.65;8.85;;;;;;;17.14;100.00;99121.94;12218651;19;20500;-82
2022/09/08 06:08:11;;;;;;;19.77;9.70;;;;;;;17.15;100.00;99123.59;12210095;19;20053;-83
2022/09/08 06:12:13;;;;;;;20.17;9.88;;;;;;;17.21;100.00;99133.47;12228266;19;20121;-82
2022/09/08 06:16:15;;;;;;;24.27;11.02;;;;;;;17.20;100.00;99138.22;12227353;19;20033;-81
2022/09/08 06:20:17;;;;;;;18.85;9.93;;;;;;;17.24;100.00;99125.31;12206409;19;20022;-80
2022/09/08 06:24:19;;;;;;;20.27;10.77;;;;;;;17.25;100.00;99118.63;12218616;19;20014;-80
2022/09/08 06:28:29;;;;;;;;;;;;;;;17.26;100.00;99138.94;12220705;19;20011;-80
2022/09/08 06:33:02;;;;;;;21.50;11.13;;;;;;;17.25;100.00;99154.84;12194685;19;20261;-81
2022/09/08 06:37:27;;;;;;;29.75;13.43;;;;;;;17.27;100.00;99144.19;12217033;19;20014;-81
2022/09/08 06:41:44;;;;;;;33.22;15.02;;;;;;;17.38;100.00;99146.78;12198205;19;20078;-81
2022/09/08 06:45:49;;;;;;;39.05;16.25;;;;;;;17.42;100.00;99153.38;12214871;19;20010;-81
2022/09/08 06:49:51;;;;;;;44.72;20.42;;;;;;;17.42;100.00;99145.81;12223330;19;20006;-80
2022/09/08 06:54:08;;;;;;;49.70;21.08;;;;;;;17.47;100.00;99150.47;12199369;19;20022;-80
2022/09/08 06:58:32;;;;;;;40.65;20.45;;;;;;;17.54;100.00;99160.03;12220008;19;20022;-80
2022/09/08 07:03:15;;;;;;;47.88;21.52;;;;;;;17.62;100.00;99149.31;12196074;19;20037;-80
2022/09/08 07:07:17;;;;;;;31.52;17.58;;;;;;;17.63;100.00;99165.72;12256797;19;20027;-79
2022/09/08 07:11:41;;;;;;;36.10;16.58;;;;;;;17.66;100.00;99159.50;12232036;19;20011;-81
2022/09/08 07:15:45;;;;;;;29.77;14.45;;;;;;;17.67;100.00;99163.97;12216306;19;20010;-80
2022/09/08 07:19:50;;;;;;;20.70;10.63;;;;;;;17.74;100.00;99163.53;12242699;19;20003;-80
2022/09/08 07:23:54;;;;;;;20.60;10.25;;;;;;;17.76;100.00;99173.22;12212259;19;20011;-80
2022/09/08 07:28:03;;;;;;;15.32;6.78;;;;;;;17.76;100.00;99176.00;12235567;19;20017;-80
2022/09/08 07:32:12;;;;;;;12.65;6.50;;;;;;;17.80;100.00;99183.78;12217046;19;20102;-81
2022/09/08 07:36:33;;;;;;;10.63;5.57;;;;;;;17.77;100.00;99174.91;12233576;19;20014;-80
2022/09/08 07:40:41;;;;;;;7.65;4.57;;;;;;;17.85;100.00;99186.47;12238860;19;20010;-80
2022/09/08 07:44:43;;;;;;;5.90;3.80;;;;;;;17.93;100.00;99186.50;12198246;19;20029;-79
2022/09/08 07:49:03;;;;;;;6.57;2.75;;;;;;;17.98;100.00;99185.59;12234025;19;20023;-79
2022/09/08 07:53:39;;;;;;;5.22;2.90;;;;;;;18.05;100.00;99187.94;12210737;19;20015;-79
2022/09/08 07:58:05;;;;;;;5.03;2.10;;;;;;;18.08;100.00;99199.28;12232215;19;20475;-79
2022/09/08 08:02:12;;;;;;;4.82;2.13;;;;;;;18.12;100.00;99197.53;12208053;19;20017;-79
2022/09/08 08:06:20;;;;;;;4.10;1.98;;;;;;;18.21;100.00;99204.00;12226365;19;20015;-78
2022/09/08 08:10:34;;;;;;;4.65;1.80;;;;;;;18.40;100.00;99216.94;12230550;19;20045;-79
2022/09/08 08:15:01;;;;;;;4.00;1.80;;;;;;;18.59;100.00;99206.44;12208659;19;20383;-79
2022/09/08 08:19:42;;;;;;;2.50;1.65;;;;;;;18.72;100.00;99210.28;12231537;19;20019;-79
2022/09/08 08:23:56;;;;;;;4.18;1.92;;;;;;;18.92;100.00;99222.06;12213657;19;20062;-80
2022/09/08 08:28:18;;;;;;;3.20;1.98;;;;;;;19.11;100.00;99217.09;12239149;19;20070;-80
2022/09/08 08:32:28;;;;;;;7.45;2.38;;;;;;;19.30;100.00;99233.59;12217524;19;20052;-80
2022/09/08 08:36:43;;;;;;;3.92;2.00;;;;;;;19.31;100.00;99238.06;12243411;19;20048;-79
2022/09/08 08:41:13;;;;;;;3.33;1.90;;;;;;;19.45;100.00;99235.16;12255642;19;20009;-79
2022/09/08 08:45:55;;;;;;;4.25;2.00;;;;;;;19.59;100.00;99230.28;12239827;19;20019;-80
2022/09/08 08:50:20;;;;;;;5.10;1.93;;;;;;;19.99;100.00;99239.47;12240718;19;20596;-81
2022/09/08 08:54:50;;;;;;;2.63;2.30;;;;;;;20.07;100.00;99235.00;12225894;19;20367;-81
2022/09/08 08:59:03;;;;;;;3.15;1.73;;;;;;;20.18;100.00;99238.31;12222412;19;20033;-81
2022/09/08 09:03:27;;;;;;;5.90;1.90;;;;;;;20.71;100.00;99237.19;12197653;19;20010;-81
2022/09/08 09:07:39;;;;;;;4.13;1.52;;;;;;;20.68;100.00;99235.88;12220795;19;20010;-82
2022/09/08 09:12:05;;;;;;;4.18;1.70;;;;;;;20.96;100.00;99238.28;12196635;19;20057;-82
2022/09/08 09:16:34;;;;;;;2.92;1.40;;;;;;;20.78;100.00;99231.91;12219020;19;20014;-82
2022/09/08 09:20:56;;;;;;;4.38;1.65;;;;;;;20.28;100.00;99243.59;12202515;19;20014;-83
2022/09/08 09:25:10;;;;;;;3.97;1.58;;;;;;;20.60;100.00;99230.28;12223150;19;20030;-82
2022/09/08 09:29:15;;;;;;;5.22;1.90;;;;;;;20.76;100.00;99236.19;12200290;19;20013;-85
2022/09/08 09:33:28;;;;;;;2.50;1.45;;;;;;;21.19;98.58;99232.47;12230042;19;20817;-82
2022/09/08 09:38:22;;;;;;;1.85;1.17;;;;;;;21.37;92.83;99248.91;12221773;19;20432;-81
2022/09/08 09:42:46;;;;;;;2.67;1.42;;;;;;;21.09;87.09;99250.44;12199905;19;20018;-81
2022/09/08 09:47:16;;;;;;;3.72;1.50;;;;;;;21.35;87.26;99253.16;12218786;19;20002;-81
2022/09/08 09:51:22;;;;;;;3.58;1.48;;;;;;;21.58;87.09;99245.38;12199530;19;20041;-81
2022/09/08 09:55:53;;;;;;;1.95;1.10;;;;;;;21.61;80.80;99255.91;12218655;19;20338;-81
2022/09/08 10:00:17;;;;;;;1.08;0.95;;;;;;;21.72;80.42;99261.97;12198512;19;20014;-80
2022/09/08 10:04:25;;;;;;;1.70;0.80;;;;;;;21.56;76.34;99258.88;12219706;19;20057;-81
2022/09/08 10:08:46;;;;;;;1.27;0.60;;;;;;;21.26;76.62;99250.41;12199881;19;20102;-81
2022/09/08 10:13:30;;;;;;;2.50;0.82;;;;;;;20.45;76.17;99268.78;12217967;19;20357;-80
2022/09/08 10:17:50;;;;;;;0.95;0.50;;;;;;;20.90;79.03;99260.03;12195911;19;20062;-81
2022/09/08 10:22:26;;;;;;;2.50;0.80;;;;;;;21.34;77.36;99269.16;12216796;19;20352;-80
2022/09/08 10:26:49;;;;;;;5.18;0.80;;;;;;;21.41;76.75;99265.06;12189273;19;20010;-80
2022/09/08 10:31:31;;;;;;;1.23;0.80;;;;;;;20.74;73.87;99261.72;12213401;19;19999;-80
2022/09/08 10:35:46;;;;;;;5.93;0.75;;;;;;;20.68;75.82;99271.44;12205817;19;20015;-80
2022/09/08 10:40:18;;;;;;;2.70;0.77;;;;;;;20.85;75.59;99270.59;12242067;19;22635;-79
2022/09/08 10:44:30;;;;;;;1.73;0.90;;;;;;;21.31;75.36;99275.44;12213768;19;20099;-80
2022/09/08 10:49:27;;;;;;;1.77;0.75;;;;;;;21.66;71.63;99285.75;12237293;19;20010;-80
2022/09/08 10:54:06;;;;;;;2.90;0.80;;;;;;;21.97;71.19;99291.84;12217227;19;20434;-80
2022/09/08 10:58:39;;;;;;;7.88;1.17;;;;;;;22.17;67.37;99281.03;12235843;19;20697;-81
2022/09/08 11:02:52;;;;;;;4.13;1.17;;;;;;;21.79;68.84;99279.91;12212798;19;20030;-81
2022/09/08 11:07:29;;;;;;;1.85;0.80;;;;;;;22.19;70.02;99284.31;12228654;19;20010;-80
2022/09/08 11:12:00;;;;;;;3.80;0.90;;;;;;;22.37;66.19;99285.84;12211240;19;20015;-82
2022/09/08 11:16:02;;;;;;;1.90;1.00;;;;;;;22.29;65.71;99286.75;12237326;19;20006;-79
2022/09/08 11:20:11;;;;;;;3.57;0.83;;;;;;;22.34;64.16;99299.72;12218617;19;20007;-80
2022/09/08 11:24:46;;;;;;;1.95;0.93;;;;;;;22.37;63.98;99301.84;12234425;19;20006;-80
2022/09/08 11:29:13;;;;;;;2.38;1.35;;;;;;;22.44;62.66;99293.72;12232957;19;20333;-79
2022/09/08 11:33:21;;;;;;;2.22;1.05;;;;;;;22.89;62.38;99298.63;12209986;19;20017;-79
2022/09/08 11:37:39;;;;;;;7.85;0.77;;;;;;;23.23;58.63;99302.28;12234022;19;20415;-80
2022/09/08 11:41:43;;;;;;;1.85;0.73;;;;;;;23.00;58.30;99304.69;12212275;19;20093;-79
2022/09/08 11:46:13;;;;;;;4.05;1.35;;;;;;;22.88;58.61;99300.63;12232707;19;20033;-79
2022/09/08 11:50:23;;;;;;;4.28;1.02;;;;;;;22.92;60.12;99300.75;12208201;19;20015;-79
2022/09/08 11:55:03;;;;;;;1.97;1.07;;;;;;;23.09;60.09;99285.75;12225884;19;20086;-79
2022/09/08 11:59:39;;;;;;;2.28;1.00;;;;;;;23.62;59.02;99287.63;12206636;19;20034;-79
2022/09/08 12:04:02;;;;;;;1.80;0.88;;;;;;;23.73;57.97;99287.19;12226732;19;20078;-79
2022/09/08 12:08:33;;;;;;;1.95;1.00;;;;;;;24.13;56.55;99286.50;12202068;19;20002;-79
2022/09/08 12:12:59;;;;;;;2.45;1.02;;;;;;;24.46;56.29;99286.34;12226566;19;20022;-79
2022/09/08 12:17:32;;;;;;;2.20;0.77;;;;;;;24.71;54.27;99284.28;12204372;19;20739;-80
2022/09/08 12:21:55;;;;;;;2.28;0.80;;;;;;;25.78;49.84;99283.59;12226282;19;20002;-79
2022/09/08 12:26:27;;;;;;;4.15;0.80;;;;;;;26.90;46.98;99268.88;12219049;19;20599;-80
2022/09/08 12:30:42;;;;;;;4.50;0.80;;;;;;;26.55;45.81;99266.91;12126038;19;2005744;-78
2022/09/08 12:35:08;;;;;;;2.03;1.00;;;;;;;25.79;47.55;99280.44;12231977;19;20026;-78
2022/09/08 12:39:32;;;;;;;2.40;0.82;;;;;;;25.40;48.34;99268.09;12213643;19;20058;-80
2022/09/08 12:43:42;;;;;;;3.08;0.73;;;;;;;24.43;49.79;99268.16;12229630;19;20021;-78
2022/09/08 12:48:30;;;;;;;4.38;0.80;;;;;;;23.74;52.91;99264.34;12212440;19;20003;-79
2022/09/08 12:53:05;;;;;;;2.38;1.30;;;;;;;23.55;53.49;99264.06;12241391;19;20011;-79
2022/09/08 12:57:48;;;;;;;4.55;0.73;;;;;;;23.27;54.48;99247.03;12226859;19;20007;-79
2022/09/08 13:01:58;;;;;;;;;;;;;;;23.73;53.80;99242.19;12244768;19;20007;-79
2022/09/08 13:06:57;;;;;;;2.88;0.80;;;;;;;23.47;52.38;99248.97;12222339;19;19915;-79
2022/09/08 13:11:11;;;;;;;2.30;0.85;;;;;;;23.15;53.79;99256.28;12229033;19;20034;-79
2022/09/08 13:15:56;;;;;;;4.30;0.82;;;;;;;24.15;52.09;99239.91;12209917;19;20013;-78
2022/09/08 13:20:17;;;;;;;2.72;0.80;;;;;;;26.26;47.41;99236.38;12268417;19;20020;-80
2022/09/08 13:24:48;;;;;;;4.20;0.95;;;;;;;28.07;41.14;99243.09;12227702;19;20021;-77
2022/09/08 13:29:01;;;;;;;2.20;1.08;;;;;;;28.48;40.58;99243.31;12228585;19;20010;-78
2022/09/08 13:34:01;;;;;;;2.33;0.60;;;;;;;28.30;38.42;99237.38;12200454;19;20010;-78
2022/09/08 13:38:24;;;;;;;1.95;0.57;;;;;;;27.93;39.43;99238.03;12206349;19;20010;-81
2022/09/08 13:43:16;;;;;;;6.00;1.10;;;;;;;28.99;36.64;99237.88;12238847;19;20007;-82
2022/09/08 13:47:46;;;;;;;4.93;0.82;;;;;;;29.52;36.31;99236.81;12211942;19;20074;-81
2022/09/08 13:52:11;;;;;;;2.92;0.80;;;;;;;29.62;36.02;99236.13;12224942;19;20059;-79
2022/09/08 13:56:20;;;;;;;2.67;0.98;;;;;;;30.37;35.08;99225.34;12199364;19;20035;-82
2022/09/08 14:00:23;;;;;;;2.75;0.77;;;;;;;30.93;34.13;99231.69;12229185;19;20003;-79
2022/09/08 14:04:47;;;;;;;3.92;0.75;;;;;;;29.76;34.94;99229.75;12218524;19;20010;-77
2022/09/08 14:08:57;;;;;;;5.22;0.80;;;;;;;28.26;37.45;99243.00;12198165;19;20011;-77
2022/09/08 14:13:15;;;;;;;4.25;0.98;;;;;;;26.94;39.14;99237.84;12217133;19;20003;-78
2022/09/08 14:17:27;;;;;;;3.80;1.00;;;;;;;25.62;41.40;99246.94;12193864;19;20019;-77
2022/09/08 14:21:49;;;;;;;2.92;0.77;;;;;;;24.86;43.26;99248.88;12216938;19;20007;-76
2022/09/08 14:26:15;;;;;;;73.70;7.35;;;;;;;24.11;45.64;99247.44;12211007;19;20011;-76
2022/09/08 14:30:27;;;;;;;3.20;0.90;;;;;;;23.79;46.46;99235.97;12186579;19;20538;-76
2022/09/08 14:34:56;;;;;;;2.65;0.80;;;;;;;23.75;46.85;99239.84;12210460;19;20372;-76
2022/09/08 14:39:23;;;;;;;4.13;0.85;;;;;;;23.21;49.49;99254.88;12191569;19;20498;-76
2022/09/08 14:43:37;;;;;;;1.48;0.70;;;;;;;22.58;52.25;99254.97;12212729;19;20010;-76
2022/09/08 14:48:01;;;;;;;4.93;0.70;;;;;;;22.41;53.24;99255.13;12181685;19;20003;-76
2022/09/08 14:52:25;;;;;;;4.20;0.85;;;;;;;22.70;54.52;99252.22;12209361;19;20003;-76
2022/09/08 14:56:37;;;;;;;4.10;0.77;;;;;;;23.67;52.59;99239.56;12186379;19;20479;-77
2022/09/08 15:00:41;;;;;;;2.20;0.80;;;;;;;24.79;49.48;99238.22;12213226;19;20017;-76
2022/09/08 15:04:46;;;;;;;3.97;0.82;;;;;;;25.50;45.67;99239.38;12212038;19;20037;-78
2022/09/08 15:08:48;;;;;;;2.50;0.88;;;;;;;25.89;44.92;99237.56;12193386;19;20472;-77
2022/09/08 15:12:50;;;;;;;;;;;;;;;25.61;45.40;99226.38;12212063;19;20491;-77
2022/09/08 15:17:01;;;;;;;3.13;0.65;;;;;;;24.92;47.53;99244.63;12207431;19;20655;-76
2022/09/08 15:21:05;;;;;;;4.30;0.90;;;;;;;23.98;51.76;99249.47;12188750;19;20459;-76
2022/09/08 15:25:43;;;;;;;4.07;1.10;;;;;;;23.10;54.32;99253.66;12208287;19;20498;-78
2022/09/08 15:29:59;;;;;;;2.85;0.85;;;;;;;22.41;56.01;99263.53;12187906;19;20026;-76
2022/09/08 15:34:27;;;;;;;2.25;1.08;;;;;;;21.85;58.71;99256.09;12202698;19;20010;-76
2022/09/08 15:38:50;;;;;;;2.17;1.02;;;;;;;21.65;60.67;99247.63;12185665;19;20041;-76
2022/09/08 15:43:29;;;;;;;3.72;1.10;;;;;;;21.49;60.85;99253.00;12209474;19;20003;-76
2022/09/08 15:47:50;;;;;;;2.20;0.90;;;;;;;21.48;60.51;99252.19;12189945;19;20087;-78
2022/09/08 15:52:26;;;;;;;5.13;1.10;;;;;;;21.61;60.57;99253.09;12213445;19;20010;-78
2022/09/08 15:56:46;;;;;;;4.13;1.13;;;;;;;21.70;59.30;99253.06;12189014;19;20018;-78
2022/09/08 16:01:09;;;;;;;3.42;0.93;;;;;;;21.72;58.90;99259.97;12214913;19;20007;-77
2022/09/08 16:05:19;;;;;;;4.55;1.05;;;;;;;21.82;59.13;99261.56;12187589;19;20010;-78
2022/09/08 16:09:22;;;;;;;2.17;1.17;;;;;;;21.80;59.46;99263.88;12213585;19;20015;-78
2022/09/08 16:13:28;;;;;;;3.60;1.00;;;;;;;21.75;59.89;99256.50;12210989;19;20029;-78
2022/09/08 16:17:31;;;;;;;3.08;1.13;;;;;;;21.66;60.05;99261.34;12189370;19;20020;-78
2022/09/08 16:21:37;;;;;;;3.97;0.90;;;;;;;21.66;61.38;99266.94;12211407;19;20551;-78
2022/09/08 16:25:51;;;;;;;2.67;0.85;;;;;;;21.68;61.65;99270.22;12210323;19;20007;-78
2022/09/08 16:30:07;;;;;;;2.08;0.82;;;;;;;21.90;61.62;99257.91;12198118;19;20010;-78
2022/09/08 16:34:09;;;;;;;2.83;1.20;;;;;;;22.69;59.07;99261.78;12216189;19;20041;-78
2022/09/08 16:38:30;;;;;;;2.92;1.10;;;;;;;22.57;59.23;99253.31;12201921;19;20586;-78
2022/09/08 16:42:50;;;;;;;3.10;1.20;;;;;;;22.31;60.23;99250.75;12225710;19;20010;-78
2022/09/08 16:46:52;;;;;;;6.20;1.10;;;;;;;22.02;60.34;99248.75;12220281;19;20006;-78
2022/09/08 16:51:31;;;;;;;4.77;1.17;;;;;;;21.94;60.87;99250.44;12203674;19;20033;-79
2022/09/08 16:55:42;;;;;;;4.55;1.20;;;;;;;21.85;61.74;99250.50;12228814;19;20026;-79
2022/09/08 16:59:58;;;;;;;2.45;0.90;;;;;;;21.72;61.97;99251.56;12203848;19;20428;-76
2022/09/08 17:04:02;;;;;;;2.40;0.95;;;;;;;21.53;62.63;99254.78;12212556;19;20353;-76
2022/09/08 17:08:15;;;;;;;4.13;1.80;;;;;;;21.27;63.73;99254.03;12209910;19;20003;-76
2022/09/08 17:12:40;;;;;;;3.55;1.25;;;;;;;20.93;66.05;99245.38;12215906;19;20007;-76
2022/09/08 17:17:30;;;;;;;7.28;1.67;;;;;;;20.62;67.85;99241.97;12222067;19;20007;-78
2022/09/08 17:21:43;;;;;;;5.90;1.50;;;;;;;20.40;68.65;99237.34;12207336;19;20078;-79
2022/09/08 17:25:50;;;;;;;4.18;1.50;;;;;;;20.26;69.63;99245.91;12218916;19;20037;-76
2022/09/08 17:30:11;;;;;;;4.60;1.25;;;;;;;20.10;69.65;99242.75;12195102;19;20007;-76
2022/09/08 17:34:22;;;;;;;2.75;1.30;;;;;;;19.97;70.54;99244.53;12206100;19;20014;-76
2022/09/08 17:38:38;;;;;;;2.50;1.10;;;;;;;19.80;72.01;99239.72;12194454;19;20016;-76
2022/09/08 17:43:10;;;;;;;3.90;1.45;;;;;;;19.62;73.65;99234.38;12213400;19;20003;-76
2022/09/08 17:47:24;;;;;;;1.95;1.05;;;;;;;19.42;73.64;99222.63;12190541;19;20022;-76
2022/09/08 17:51:28;;;;;;;4.80;1.10;;;;;;;19.27;75.29;99228.66;12223319;19;20567;-78
2022/09/08 17:55:45;;;;;;;3.28;1.60;;;;;;;19.10;77.37;99233.03;12223856;19;20006;-79
2022/09/08 18:00:12;;;;;;;3.92;1.35;;;;;;;18.95;77.67;99230.66;12199648;19;20007;-79
2022/09/08 18:04:13;;;;;;;6.63;2.65;;;;;;;18.80;78.30;99242.19;12218964;19;20086;-79
2022/09/08 18:08:17;;;;;;;7.35;2.10;;;;;;;18.71;79.64;99246.84;12198284;19;20002;-79
2022/09/08 18:12:31;;;;;;;3.90;1.40;;;;;;;18.57;81.25;99258.94;12220028;19;20038;-79
2022/09/08 18:16:40;;;;;;;7.22;1.92;;;;;;;18.48;81.45;99260.00;12216696;19;20010;-79
2022/09/08 18:20:41;;;;;;;4.70;1.50;;;;;;;18.40;82.81;99261.56;12199249;19;20027;-79
2022/09/08 18:24:43;;;;;;;4.65;1.20;;;;;;;18.30;83.91;99268.22;12218942;19;20022;-79
2022/09/08 18:29:10;;;;;;;7.50;1.55;;;;;;;18.22;84.80;99266.16;12221630;19;20533;-79
2022/09/08 18:33:36;;;;;;;3.47;1.60;;;;;;;18.14;85.90;99272.47;12196447;19;20014;-79
2022/09/08 18:37:49;;;;;;;7.18;2.20;;;;;;;18.02;87.41;99270.22;12211955;19;20018;-78
2022/09/08 18:42:12;;;;;;;3.47;1.95;;;;;;;17.92;88.60;99273.25;12199582;19;20010;-79
2022/09/08 18:46:22;;;;;;;9.00;2.05;;;;;;;17.86;89.02;99271.72;12219722;19;20062;-79
2022/09/08 18:50:34;;;;;;;5.53;1.90;;;;;;;17.79;89.40;99277.72;12194975;19;20441;-76
2022/09/08 18:55:00;;;;;;;4.85;1.38;;;;;;;17.74;91.03;99286.13;12208856;19;20356;-76
2022/09/08 18:59:03;;;;;;;2.58;1.20;;;;;;;17.71;90.02;99292.34;12211947;19;20491;-76
2022/09/08 19:03:15;;;;;;;5.68;1.70;;;;;;;17.64;90.95;99292.75;12192305;19;20359;-76
2022/09/08 19:07:28;;;;;;;4.57;1.48;;;;;;;17.60;92.38;99297.28;12217669;19;20049;-77
2022/09/08 19:11:54;;;;;;;5.43;1.58;;;;;;;17.54;91.68;99299.31;12195915;19;20017;-77
2022/09/08 19:16:10;;;;;;;4.00;1.50;;;;;;;17.50;92.40;99297.47;12236379;19;20002;-77
2022/09/08 19:20:44;;;;;;;5.00;1.75;;;;;;;17.45;91.77;99294.78;12194604;19;20031;-77
2022/09/08 19:24:56;;;;;;;6.80;1.58;;;;;;;17.45;91.79;99297.56;12205750;19;20368;-77
2022/09/08 19:29:30;;;;;;;7.63;1.73;;;;;;;17.46;90.90;99297.28;12211419;19;20023;-76
2022/09/08 19:33:32;;;;;;;5.70;1.52;;;;;;;17.41;90.80;99307.69;12201682;19;20415;-76
2022/09/08 19:37:44;;;;;;;5.35;1.55;;;;;;;17.39;91.31;99309.94;12213161;19;20028;-77
2022/09/08 19:41:46;;;;;;;6.47;1.57;;;;;;;17.36;92.19;99305.81;12187200;19;20010;-77